This is the latest recevied weather packets stored in our database for station/object KA8DUX-2. If no packets are shown the sender has not sent any weather packets the latest 1 day(s).
| Time | Temp. | Humidity | Pressure | Rain* | Wind** | Luminosity | Snow |
|---|---|---|---|---|---|---|---|
| 1836274628 | 17.78° C | 85% | 1018.9 hPa | 0 mm | 0 m/s | 0 W/m² | - |
| 1836274481 | 17.78° C | 85% | 1018.8 hPa | 0 mm | 0.89 m/s, 44° | 0 W/m² | - |
| 1836274325 | 17.78° C | 85% | 1018.9 hPa | 0 mm | 0 m/s | 0 W/m² | - |
| 1836274179 | 17.78° C | 85% | 1018.9 hPa | 0 mm | 0.89 m/s, 55° | 0 W/m² | - |
| 1836274024 | 18.33° C | 85% | 1018.8 hPa | 0 mm | 0 m/s | 0 W/m² | - |
| 1778065419 | 2.22° C | 83% | 1009.8 hPa | 0 mm | 0 m/s | 17 W/m² | - |
| 1778065115 | 2.22° C | 84% | 1009.8 hPa | 0 mm | 0 m/s | 18 W/m² | - |
| 1778064812 | 2.22° C | 84% | 1010 hPa | 0 mm | 0 m/s | 15 W/m² | - |
| 1778064510 | 2.22° C | 86% | 1009.9 hPa | 0 mm | 0 m/s | 14 W/m² | - |
| 1778064207 | 1.67° C | 87% | 1010.1 hPa | 0 mm | 0 m/s | 8 W/m² | - |
| 1778063904 | 1.67° C | 87% | 1009.9 hPa | 0 mm | 0 m/s | 5 W/m² | - |
| 1778063602 | 1.67° C | 87% | 1010 hPa | 0 mm | 0 m/s | 3 W/m² | - |
| 1778063299 | 1.67° C | 87% | 1009.8 hPa | 0 mm | 0 m/s | 1 W/m² | - |
| 1778062997 | 1.67° C | 87% | 1009.8 hPa | 0 mm | 0 m/s | 0 W/m² | - |
| 1778062694 | 1.67° C | 87% | 1010 hPa | 0 mm | 0 m/s | 0 W/m² | - |
| 1778062390 | 2.22° C | 87% | 1009.9 hPa | 0 mm | 0 m/s | 0 W/m² | - |
| 1778062088 | 1.67° C | 87% | 1009.7 hPa | 0 mm | 0 m/s | 0 W/m² | - |
| 1778061786 | 1.67° C | 87% | 1010 hPa | 0 mm | 0 m/s | 0 W/m² | - |
| 1778061484 | 1.67° C | 87% | 1009.7 hPa | 0 mm | 0 m/s | 0 W/m² | - |
| 1778061181 | 2.22° C | 87% | 1009.7 hPa | 0 mm | 0 m/s | 0 W/m² | - |
| 1778060877 | 2.22° C | 87% | 1009.7 hPa | 0 mm | 0 m/s | 0 W/m² | - |
| 1778060576 | 2.22° C | 87% | 1009.5 hPa | 0 mm | 0 m/s | 0 W/m² | - |
| 1778060274 | 2.22° C | 87% | 1009.6 hPa | 0 mm | 0 m/s | 0 W/m² | - |
| 1778059971 | 2.22° C | 87% | 1009.4 hPa | 0 mm | 0 m/s | 0 W/m² | - |
| 1778059669 | 2.22° C | 86% | 1009.4 hPa | 0 mm | 0 m/s | 0 W/m² | - |
* Rain latest hour (hover to see other rain measurements)
** Current wind speed in m/s (hover to see current wind gust speed)